sensor_id;sensor_type;location;lat;lon;timestamp;P1;durP1;ratioP1;P2;durP2;ratioP2
20381;SDS011;10350;51.280;12.400;2022-11-09T00:00:01;6.93;;;1.30;;
20381;SDS011;10350;51.280;12.400;2022-11-09T00:02:27;4.93;;;1.40;;
20381;SDS011;10350;51.280;12.400;2022-11-09T00:04:53;2.58;;;1.50;;
20381;SDS011;10350;51.280;12.400;2022-11-09T00:07:19;2.55;;;1.40;;
20381;SDS011;10350;51.280;12.400;2022-11-09T00:09:45;4.95;;;1.33;;
20381;SDS011;10350;51.280;12.400;2022-11-09T00:12:11;2.67;;;1.60;;
20381;SDS011;10350;51.280;12.400;2022-11-09T00:14:37;7.43;;;1.23;;
20381;SDS011;10350;51.280;12.400;2022-11-09T00:17:03;1.88;;;1.35;;
20381;SDS011;10350;51.280;12.400;2022-11-09T00:19:29;4.07;;;1.45;;
20381;SDS011;10350;51.280;12.400;2022-11-09T00:21:55;3.20;;;1.25;;
20381;SDS011;10350;51.280;12.400;2022-11-09T00:24:21;2.88;;;1.48;;
20381;SDS011;10350;51.280;12.400;2022-11-09T00:26:47;2.03;;;1.20;;
20381;SDS011;10350;51.280;12.400;2022-11-09T00:29:13;1.67;;;1.30;;
20381;SDS011;10350;51.280;12.400;2022-11-09T00:31:39;1.48;;;1.30;;
20381;SDS011;10350;51.280;12.400;2022-11-09T00:34:05;3.00;;;1.42;;
20381;SDS011;10350;51.280;12.400;2022-11-09T00:36:31;4.90;;;1.42;;
20381;SDS011;10350;51.280;12.400;2022-11-09T00:38:59;3.30;;;1.52;;
20381;SDS011;10350;51.280;12.400;2022-11-09T00:41:26;3.72;;;1.85;;
20381;SDS011;10350;51.280;12.400;2022-11-09T00:43:52;3.40;;;2.05;;
20381;SDS011;10350;51.280;12.400;2022-11-09T00:46:19;3.88;;;1.50;;
20381;SDS011;10350;51.280;12.400;2022-11-09T00:48:45;2.72;;;1.48;;
20381;SDS011;10350;51.280;12.400;2022-11-09T00:51:11;5.00;;;1.65;;
20381;SDS011;10350;51.280;12.400;2022-11-09T00:53:38;2.45;;;1.75;;
20381;SDS011;10350;51.280;12.400;2022-11-09T00:56:09;6.70;;;1.52;;
20381;SDS011;10350;51.280;12.400;2022-11-09T00:58:36;3.22;;;1.63;;
20381;SDS011;10350;51.280;12.400;2022-11-09T01:01:10;2.55;;;1.50;;
20381;SDS011;10350;51.280;12.400;2022-11-09T01:03:36;1.58;;;1.38;;
20381;SDS011;10350;51.280;12.400;2022-11-09T01:06:03;2.78;;;1.60;;
20381;SDS011;10350;51.280;12.400;2022-11-09T01:08:29;6.15;;;1.60;;
20381;SDS011;10350;51.280;12.400;2022-11-09T01:10:55;5.47;;;1.55;;
20381;SDS011;10350;51.280;12.400;2022-11-09T01:13:21;2.38;;;1.40;;
20381;SDS011;10350;51.280;12.400;2022-11-09T01:15:49;2.33;;;1.48;;
20381;SDS011;10350;51.280;12.400;2022-11-09T01:18:15;3.57;;;1.70;;
20381;SDS011;10350;51.280;12.400;2022-11-09T01:20:43;1.77;;;1.50;;
20381;SDS011;10350;51.280;12.400;2022-11-09T01:23:09;3.38;;;1.55;;
20381;SDS011;10350;51.280;12.400;2022-11-09T01:25:36;5.57;;;1.95;;
20381;SDS011;10350;51.280;12.400;2022-11-09T01:28:02;3.90;;;1.50;;
20381;SDS011;10350;51.280;12.400;2022-11-09T01:30:29;2.75;;;1.70;;
20381;SDS011;10350;51.280;12.400;2022-11-09T01:32:55;3.53;;;1.90;;
20381;SDS011;10350;51.280;12.400;2022-11-09T01:35:24;2.40;;;1.60;;
20381;SDS011;10350;51.280;12.400;2022-11-09T01:37:50;2.35;;;1.30;;
20381;SDS011;10350;51.280;12.400;2022-11-09T01:40:16;3.35;;;1.65;;
20381;SDS011;10350;51.280;12.400;2022-11-09T01:42:42;3.60;;;1.65;;
20381;SDS011;10350;51.280;12.400;2022-11-09T01:45:30;2.50;;;1.48;;
20381;SDS011;10350;51.280;12.400;2022-11-09T01:48:09;4.82;;;1.80;;
20381;SDS011;10350;51.280;12.400;2022-11-09T01:50:41;4.57;;;2.05;;
20381;SDS011;10350;51.280;12.400;2022-11-09T01:53:10;2.53;;;1.55;;
20381;SDS011;10350;51.280;12.400;2022-11-09T01:55:37;5.38;;;1.77;;
20381;SDS011;10350;51.280;12.400;2022-11-09T01:58:07;2.55;;;1.65;;
20381;SDS011;10350;51.280;12.400;2022-11-09T02:00:35;4.90;;;1.70;;
20381;SDS011;10350;51.280;12.400;2022-11-09T02:03:07;4.72;;;1.80;;
20381;SDS011;10350;51.280;12.400;2022-11-09T02:05:35;4.72;;;1.63;;
20381;SDS011;10350;51.280;12.400;2022-11-09T02:08:01;2.15;;;1.85;;
20381;SDS011;10350;51.280;12.400;2022-11-09T02:13:11;3.22;;;1.42;;
20381;SDS011;10350;51.280;12.400;2022-11-09T02:15:38;3.67;;;1.88;;
20381;SDS011;10350;51.280;12.400;2022-11-09T02:18:04;2.63;;;1.77;;
20381;SDS011;10350;51.280;12.400;2022-11-09T02:20:36;1.95;;;1.42;;
20381;SDS011;10350;51.280;12.400;2022-11-09T02:23:08;3.60;;;1.40;;
20381;SDS011;10350;51.280;12.400;2022-11-09T02:25:34;3.38;;;1.83;;
20381;SDS011;10350;51.280;12.400;2022-11-09T02:28:00;2.92;;;1.48;;
20381;SDS011;10350;51.280;12.400;2022-11-09T02:30:26;3.35;;;1.73;;
20381;SDS011;10350;51.280;12.400;2022-11-09T02:32:52;2.72;;;1.60;;
20381;SDS011;10350;51.280;12.400;2022-11-09T02:35:18;2.30;;;1.65;;
20381;SDS011;10350;51.280;12.400;2022-11-09T02:37:46;2.95;;;1.58;;
20381;SDS011;10350;51.280;12.400;2022-11-09T02:42:38;3.95;;;1.30;;
20381;SDS011;10350;51.280;12.400;2022-11-09T02:45:05;2.20;;;1.30;;
20381;SDS011;10350;51.280;12.400;2022-11-09T02:47:31;2.83;;;1.88;;
20381;SDS011;10350;51.280;12.400;2022-11-09T02:49:57;2.08;;;1.60;;
20381;SDS011;10350;51.280;12.400;2022-11-09T02:52:23;5.15;;;1.80;;
20381;SDS011;10350;51.280;12.400;2022-11-09T02:54:49;4.35;;;1.60;;
20381;SDS011;10350;51.280;12.400;2022-11-09T02:57:15;4.97;;;1.90;;
20381;SDS011;10350;51.280;12.400;2022-11-09T02:59:41;1.88;;;1.65;;
20381;SDS011;10350;51.280;12.400;2022-11-09T03:02:07;1.80;;;1.50;;
20381;SDS011;10350;51.280;12.400;2022-11-09T03:04:33;4.50;;;1.70;;
20381;SDS011;10350;51.280;12.400;2022-11-09T03:06:59;4.72;;;1.80;;
20381;SDS011;10350;51.280;12.400;2022-11-09T03:09:26;2.10;;;1.55;;
20381;SDS011;10350;51.280;12.400;2022-11-09T03:11:52;3.58;;;1.60;;
20381;SDS011;10350;51.280;12.400;2022-11-09T03:14:18;5.97;;;1.70;;
20381;SDS011;10350;51.280;12.400;2022-11-09T03:16:43;3.38;;;1.55;;
20381;SDS011;10350;51.280;12.400;2022-11-09T03:19:10;2.95;;;1.65;;
20381;SDS011;10350;51.280;12.400;2022-11-09T03:21:39;2.22;;;1.50;;
20381;SDS011;10350;51.280;12.400;2022-11-09T03:24:05;1.88;;;1.52;;
20381;SDS011;10350;51.280;12.400;2022-11-09T03:26:32;3.63;;;1.80;;
20381;SDS011;10350;51.280;12.400;2022-11-09T03:28:58;5.57;;;2.20;;
20381;SDS011;10350;51.280;12.400;2022-11-09T03:31:24;2.55;;;1.55;;
20381;SDS011;10350;51.280;12.400;2022-11-09T03:33:50;3.35;;;1.52;;
20381;SDS011;10350;51.280;12.400;2022-11-09T03:36:16;2.80;;;1.65;;
20381;SDS011;10350;51.280;12.400;2022-11-09T03:38:42;2.75;;;1.77;;
20381;SDS011;10350;51.280;12.400;2022-11-09T03:41:08;2.70;;;1.80;;
20381;SDS011;10350;51.280;12.400;2022-11-09T03:43:34;3.60;;;1.40;;
20381;SDS011;10350;51.280;12.400;2022-11-09T03:45:59;3.20;;;1.90;;
20381;SDS011;10350;51.280;12.400;2022-11-09T03:48:25;2.92;;;1.40;;
20381;SDS011;10350;51.280;12.400;2022-11-09T03:50:51;1.88;;;1.20;;
20381;SDS011;10350;51.280;12.400;2022-11-09T03:53:17;3.42;;;1.73;;
20381;SDS011;10350;51.280;12.400;2022-11-09T03:55:43;4.60;;;1.60;;
20381;SDS011;10350;51.280;12.400;2022-11-09T03:58:10;2.95;;;1.50;;
20381;SDS011;10350;51.280;12.400;2022-11-09T04:00:37;5.50;;;1.67;;
20381;SDS011;10350;51.280;12.400;2022-11-09T04:03:03;5.38;;;1.70;;
20381;SDS011;10350;51.280;12.400;2022-11-09T04:05:29;2.75;;;1.65;;
20381;SDS011;10350;51.280;12.400;2022-11-09T04:07:56;2.58;;;1.40;;
20381;SDS011;10350;51.280;12.400;2022-11-09T04:10:22;4.85;;;1.70;;
20381;SDS011;10350;51.280;12.400;2022-11-09T04:12:48;2.55;;;1.33;;
20381;SDS011;10350;51.280;12.400;2022-11-09T04:15:15;2.95;;;1.63;;
20381;SDS011;10350;51.280;12.400;2022-11-09T04:17:41;3.45;;;1.65;;
20381;SDS011;10350;51.280;12.400;2022-11-09T04:20:09;2.00;;;1.35;;
20381;SDS011;10350;51.280;12.400;2022-11-09T04:22:35;1.95;;;1.48;;
20381;SDS011;10350;51.280;12.400;2022-11-09T04:25:01;1.88;;;1.40;;
20381;SDS011;10350;51.280;12.400;2022-11-09T04:27:27;3.45;;;1.40;;
20381;SDS011;10350;51.280;12.400;2022-11-09T04:29:54;6.80;;;1.40;;
20381;SDS011;10350;51.280;12.400;2022-11-09T04:32:20;1.90;;;1.50;;
20381;SDS011;10350;51.280;12.400;2022-11-09T04:34:46;2.08;;;1.30;;
20381;SDS011;10350;51.280;12.400;2022-11-09T04:37:12;3.25;;;1.30;;
20381;SDS011;10350;51.280;12.400;2022-11-09T04:39:38;2.70;;;1.40;;
20381;SDS011;10350;51.280;12.400;2022-11-09T04:42:04;2.20;;;1.25;;
20381;SDS011;10350;51.280;12.400;2022-11-09T04:44:30;4.15;;;1.80;;
20381;SDS011;10350;51.280;12.400;2022-11-09T04:46:56;3.22;;;1.50;;
20381;SDS011;10350;51.280;12.400;2022-11-09T04:49:22;1.73;;;1.42;;
20381;SDS011;10350;51.280;12.400;2022-11-09T04:51:48;2.95;;;1.65;;
20381;SDS011;10350;51.280;12.400;2022-11-09T04:54:14;3.17;;;1.50;;
20381;SDS011;10350;51.280;12.400;2022-11-09T04:56:40;2.38;;;1.63;;
20381;SDS011;10350;51.280;12.400;2022-11-09T04:59:06;2.88;;;1.88;;
20381;SDS011;10350;51.280;12.400;2022-11-09T05:01:32;3.50;;;1.42;;
20381;SDS011;10350;51.280;12.400;2022-11-09T05:03:58;2.55;;;1.35;;
20381;SDS011;10350;51.280;12.400;2022-11-09T05:06:24;3.70;;;1.70;;
20381;SDS011;10350;51.280;12.400;2022-11-09T05:08:55;4.68;;;1.80;;
20381;SDS011;10350;51.280;12.400;2022-11-09T05:11:22;2.28;;;1.60;;
20381;SDS011;10350;51.280;12.400;2022-11-09T05:13:48;2.95;;;1.52;;
20381;SDS011;10350;51.280;12.400;2022-11-09T05:16:15;3.45;;;1.60;;
20381;SDS011;10350;51.280;12.400;2022-11-09T05:18:42;2.40;;;1.52;;
20381;SDS011;10350;51.280;12.400;2022-11-09T05:21:08;4.75;;;1.85;;
20381;SDS011;10350;51.280;12.400;2022-11-09T05:23:35;1.38;;;1.27;;
20381;SDS011;10350;51.280;12.400;2022-11-09T05:26:19;2.92;;;1.83;;
20381;SDS011;10350;51.280;12.400;2022-11-09T05:28:45;4.47;;;1.83;;
20381;SDS011;10350;51.280;12.400;2022-11-09T05:31:11;2.53;;;1.60;;
20381;SDS011;10350;51.280;12.400;2022-11-09T05:33:37;2.30;;;1.77;;
20381;SDS011;10350;51.280;12.400;2022-11-09T05:36:03;2.03;;;1.52;;
20381;SDS011;10350;51.280;12.400;2022-11-09T05:38:30;2.78;;;1.55;;
20381;SDS011;10350;51.280;12.400;2022-11-09T05:40:56;3.28;;;1.77;;
20381;SDS011;10350;51.280;12.400;2022-11-09T05:43:22;5.45;;;1.67;;
20381;SDS011;10350;51.280;12.400;2022-11-09T05:45:48;4.45;;;1.50;;
20381;SDS011;10350;51.280;12.400;2022-11-09T05:48:15;2.25;;;1.73;;
20381;SDS011;10350;51.280;12.400;2022-11-09T05:50:41;5.05;;;2.35;;
20381;SDS011;10350;51.280;12.400;2022-11-09T05:53:08;4.90;;;1.90;;
20381;SDS011;10350;51.280;12.400;2022-11-09T05:55:34;3.08;;;1.80;;
20381;SDS011;10350;51.280;12.400;2022-11-09T05:58:00;3.00;;;1.70;;
20381;SDS011;10350;51.280;12.400;2022-11-09T06:00:26;5.95;;;1.77;;
20381;SDS011;10350;51.280;12.400;2022-11-09T06:02:52;2.53;;;1.70;;
20381;SDS011;10350;51.280;12.400;2022-11-09T06:05:18;2.35;;;1.65;;
20381;SDS011;10350;51.280;12.400;2022-11-09T06:07:45;4.80;;;1.55;;
20381;SDS011;10350;51.280;12.400;2022-11-09T06:10:11;2.38;;;1.75;;
20381;SDS011;10350;51.280;12.400;2022-11-09T06:12:37;3.40;;;1.67;;
20381;SDS011;10350;51.280;12.400;2022-11-09T06:15:03;3.65;;;1.88;;
20381;SDS011;10350;51.280;12.400;2022-11-09T06:17:30;2.58;;;1.63;;
20381;SDS011;10350;51.280;12.400;2022-11-09T06:19:56;3.45;;;2.10;;
20381;SDS011;10350;51.280;12.400;2022-11-09T06:22:22;3.40;;;2.08;;
20381;SDS011;10350;51.280;12.400;2022-11-09T06:24:48;2.78;;;2.00;;
20381;SDS011;10350;51.280;12.400;2022-11-09T06:27:14;3.60;;;2.25;;
20381;SDS011;10350;51.280;12.400;2022-11-09T06:29:42;3.03;;;2.00;;
20381;SDS011;10350;51.280;12.400;2022-11-09T06:32:08;2.65;;;1.90;;
20381;SDS011;10350;51.280;12.400;2022-11-09T06:34:34;2.92;;;1.75;;
20381;SDS011;10350;51.280;12.400;2022-11-09T06:37:00;3.47;;;2.00;;
20381;SDS011;10350;51.280;12.400;2022-11-09T06:39:26;4.35;;;1.63;;
20381;SDS011;10350;51.280;12.400;2022-11-09T06:41:52;2.63;;;1.80;;
20381;SDS011;10350;51.280;12.400;2022-11-09T06:44:18;2.45;;;1.70;;
20381;SDS011;10350;51.280;12.400;2022-11-09T06:46:44;3.92;;;2.08;;
20381;SDS011;10350;51.280;12.400;2022-11-09T06:49:10;2.60;;;1.42;;
20381;SDS011;10350;51.280;12.400;2022-11-09T06:51:36;3.95;;;1.58;;
20381;SDS011;10350;51.280;12.400;2022-11-09T06:54:02;3.00;;;1.90;;
20381;SDS011;10350;51.280;12.400;2022-11-09T06:56:28;3.08;;;1.98;;
20381;SDS011;10350;51.280;12.400;2022-11-09T06:58:54;2.88;;;1.60;;
20381;SDS011;10350;51.280;12.400;2022-11-09T07:01:22;4.18;;;2.00;;
20381;SDS011;10350;51.280;12.400;2022-11-09T07:03:48;2.47;;;1.80;;
20381;SDS011;10350;51.280;12.400;2022-11-09T07:06:14;2.28;;;1.63;;
20381;SDS011;10350;51.280;12.400;2022-11-09T07:08:40;3.60;;;1.88;;
20381;SDS011;10350;51.280;12.400;2022-11-09T07:11:07;2.05;;;1.65;;
20381;SDS011;10350;51.280;12.400;2022-11-09T07:13:33;2.60;;;1.37;;
20381;SDS011;10350;51.280;12.400;2022-11-09T07:15:59;2.75;;;1.83;;
20381;SDS011;10350;51.280;12.400;2022-11-09T07:18:25;3.08;;;1.75;;
20381;SDS011;10350;51.280;12.400;2022-11-09T07:20:51;2.72;;;1.52;;
20381;SDS011;10350;51.280;12.400;2022-11-09T07:23:18;2.30;;;1.63;;
20381;SDS011;10350;51.280;12.400;2022-11-09T07:25:44;3.80;;;1.60;;
20381;SDS011;10350;51.280;12.400;2022-11-09T07:28:10;2.05;;;1.63;;
20381;SDS011;10350;51.280;12.400;2022-11-09T07:30:37;3.00;;;1.85;;
20381;SDS011;10350;51.280;12.400;2022-11-09T07:33:03;3.10;;;2.00;;
20381;SDS011;10350;51.280;12.400;2022-11-09T07:35:29;3.63;;;2.13;;
20381;SDS011;10350;51.280;12.400;2022-11-09T07:37:59;8.85;;;2.30;;
20381;SDS011;10350;51.280;12.400;2022-11-09T07:40:25;2.70;;;2.17;;
20381;SDS011;10350;51.280;12.400;2022-11-09T07:42:51;3.42;;;1.98;;
20381;SDS011;10350;51.280;12.400;2022-11-09T07:45:18;4.65;;;2.47;;
20381;SDS011;10350;51.280;12.400;2022-11-09T07:47:44;3.10;;;2.05;;
20381;SDS011;10350;51.280;12.400;2022-11-09T07:50:10;4.50;;;2.05;;
20381;SDS011;10350;51.280;12.400;2022-11-09T07:52:36;6.10;;;2.30;;
20381;SDS011;10350;51.280;12.400;2022-11-09T07:55:02;3.55;;;1.90;;
20381;SDS011;10350;51.280;12.400;2022-11-09T07:57:28;3.15;;;2.28;;
20381;SDS011;10350;51.280;12.400;2022-11-09T08:00:07;4.35;;;2.22;;
20381;SDS011;10350;51.280;12.400;2022-11-09T08:02:33;4.18;;;2.40;;
20381;SDS011;10350;51.280;12.400;2022-11-09T08:05:07;4.68;;;2.30;;
20381;SDS011;10350;51.280;12.400;2022-11-09T08:07:33;5.15;;;2.85;;
20381;SDS011;10350;51.280;12.400;2022-11-09T08:09:59;5.60;;;2.80;;
20381;SDS011;10350;51.280;12.400;2022-11-09T08:12:25;4.18;;;2.95;;
20381;SDS011;10350;51.280;12.400;2022-11-09T08:14:51;6.05;;;2.80;;
20381;SDS011;10350;51.280;12.400;2022-11-09T08:17:17;6.20;;;2.88;;
20381;SDS011;10350;51.280;12.400;2022-11-09T08:19:43;4.35;;;2.95;;
20381;SDS011;10350;51.280;12.400;2022-11-09T08:22:09;5.18;;;2.90;;
20381;SDS011;10350;51.280;12.400;2022-11-09T08:24:35;3.92;;;2.50;;
20381;SDS011;10350;51.280;12.400;2022-11-09T08:27:01;4.80;;;2.40;;
20381;SDS011;10350;51.280;12.400;2022-11-09T08:29:27;6.13;;;2.75;;
20381;SDS011;10350;51.280;12.400;2022-11-09T08:31:53;3.25;;;2.42;;
20381;SDS011;10350;51.280;12.400;2022-11-09T08:34:19;4.85;;;2.47;;
20381;SDS011;10350;51.280;12.400;2022-11-09T08:36:45;3.75;;;2.80;;
20381;SDS011;10350;51.280;12.400;2022-11-09T08:39:11;9.30;;;3.17;;
20381;SDS011;10350;51.280;12.400;2022-11-09T08:41:37;6.20;;;2.80;;
20381;SDS011;10350;51.280;12.400;2022-11-09T08:44:03;5.82;;;2.72;;
20381;SDS011;10350;51.280;12.400;2022-11-09T08:46:29;3.67;;;2.60;;
20381;SDS011;10350;51.280;12.400;2022-11-09T08:48:58;4.50;;;2.80;;
20381;SDS011;10350;51.280;12.400;2022-11-09T08:51:24;5.22;;;2.50;;
20381;SDS011;10350;51.280;12.400;2022-11-09T08:53:50;4.13;;;2.60;;
20381;SDS011;10350;51.280;12.400;2022-11-09T08:56:16;4.50;;;2.55;;
20381;SDS011;10350;51.280;12.400;2022-11-09T08:58:43;5.47;;;2.67;;
20381;SDS011;10350;51.280;12.400;2022-11-09T09:01:09;4.57;;;2.80;;
20381;SDS011;10350;51.280;12.400;2022-11-09T09:03:35;4.72;;;3.05;;
20381;SDS011;10350;51.280;12.400;2022-11-09T09:06:05;6.20;;;2.92;;
20381;SDS011;10350;51.280;12.400;2022-11-09T09:08:32;5.13;;;2.55;;
20381;SDS011;10350;51.280;12.400;2022-11-09T09:11:04;4.00;;;2.42;;
20381;SDS011;10350;51.280;12.400;2022-11-09T09:13:30;5.78;;;2.85;;
20381;SDS011;10350;51.280;12.400;2022-11-09T09:15:57;6.13;;;2.35;;
20381;SDS011;10350;51.280;12.400;2022-11-09T09:18:23;3.25;;;2.20;;
20381;SDS011;10350;51.280;12.400;2022-11-09T09:20:49;4.20;;;2.50;;
20381;SDS011;10350;51.280;12.400;2022-11-09T09:23:15;4.70;;;2.45;;
20381;SDS011;10350;51.280;12.400;2022-11-09T09:25:42;3.78;;;2.53;;
20381;SDS011;10350;51.280;12.400;2022-11-09T09:28:08;3.72;;;2.55;;
20381;SDS011;10350;51.280;12.400;2022-11-09T09:30:34;3.47;;;2.55;;
20381;SDS011;10350;51.280;12.400;2022-11-09T09:33:00;3.85;;;2.50;;
20381;SDS011;10350;51.280;12.400;2022-11-09T09:35:27;4.28;;;2.22;;
20381;SDS011;10350;51.280;12.400;2022-11-09T09:37:53;3.90;;;2.10;;
20381;SDS011;10350;51.280;12.400;2022-11-09T09:40:23;3.63;;;2.08;;
20381;SDS011;10350;51.280;12.400;2022-11-09T09:42:52;5.90;;;2.22;;
20381;SDS011;10350;51.280;12.400;2022-11-09T09:45:20;5.22;;;2.10;;
20381;SDS011;10350;51.280;12.400;2022-11-09T09:47:48;7.28;;;2.13;;
20381;SDS011;10350;51.280;12.400;2022-11-09T09:52:56;3.47;;;1.83;;
20381;SDS011;10350;51.280;12.400;2022-11-09T09:55:42;3.28;;;1.70;;
20381;SDS011;10350;51.280;12.400;2022-11-09T09:58:12;2.78;;;1.80;;
20381;SDS011;10350;51.280;12.400;2022-11-09T10:00:39;4.50;;;1.92;;
20381;SDS011;10350;51.280;12.400;2022-11-09T10:03:08;3.88;;;1.63;;
20381;SDS011;10350;51.280;12.400;2022-11-09T10:06:03;2.38;;;1.50;;
20381;SDS011;10350;51.280;12.400;2022-11-09T10:08:57;6.35;;;2.58;;
20381;SDS011;10350;51.280;12.400;2022-11-09T10:14:13;3.22;;;2.10;;
20381;SDS011;10350;51.280;12.400;2022-11-09T10:16:40;4.82;;;2.20;;
20381;SDS011;10350;51.280;12.400;2022-11-09T10:21:52;2.97;;;1.83;;
20381;SDS011;10350;51.280;12.400;2022-11-09T10:26:46;3.50;;;1.60;;
20381;SDS011;10350;51.280;12.400;2022-11-09T10:31:40;3.97;;;1.67;;
20381;SDS011;10350;51.280;12.400;2022-11-09T10:34:12;3.78;;;1.75;;
20381;SDS011;10350;51.280;12.400;2022-11-09T10:36:42;2.05;;;1.60;;
20381;SDS011;10350;51.280;12.400;2022-11-09T10:39:11;3.75;;;1.90;;
20381;SDS011;10350;51.280;12.400;2022-11-09T10:41:39;2.45;;;1.33;;
20381;SDS011;10350;51.280;12.400;2022-11-09T10:44:08;2.22;;;1.85;;
20381;SDS011;10350;51.280;12.400;2022-11-09T10:49:22;4.13;;;1.83;;
20381;SDS011;10350;51.280;12.400;2022-11-09T10:51:48;3.45;;;1.67;;
20381;SDS011;10350;51.280;12.400;2022-11-09T10:54:18;2.78;;;1.80;;
20381;SDS011;10350;51.280;12.400;2022-11-09T10:56:57;4.75;;;1.27;;
20381;SDS011;10350;51.280;12.400;2022-11-09T10:59:34;2.10;;;1.40;;
20381;SDS011;10350;51.280;12.400;2022-11-09T11:02:01;3.45;;;1.80;;
20381;SDS011;10350;51.280;12.400;2022-11-09T11:04:27;1.45;;;1.25;;
20381;SDS011;10350;51.280;12.400;2022-11-09T11:06:53;5.28;;;1.90;;
20381;SDS011;10350;51.280;12.400;2022-11-09T11:09:20;3.22;;;1.13;;
20381;SDS011;10350;51.280;12.400;2022-11-09T11:11:47;3.53;;;1.48;;
20381;SDS011;10350;51.280;12.400;2022-11-09T11:16:42;1.67;;;1.48;;
20381;SDS011;10350;51.280;12.400;2022-11-09T11:24:43;1.13;;;1.02;;
20381;SDS011;10350;51.280;12.400;2022-11-09T11:27:13;4.93;;;1.30;;
20381;SDS011;10350;51.280;12.400;2022-11-09T11:30:15;3.65;;;1.73;;
20381;SDS011;10350;51.280;12.400;2022-11-09T11:32:33;2.78;;;1.30;;
20381;SDS011;10350;51.280;12.400;2022-11-09T11:34:59;1.85;;;1.30;;
20381;SDS011;10350;51.280;12.400;2022-11-09T12:00:34;4.35;;;1.52;;
20381;SDS011;10350;51.280;12.400;2022-11-09T12:03:10;2.65;;;1.70;;
20381;SDS011;10350;51.280;12.400;2022-11-09T12:08:43;2.72;;;1.52;;
20381;SDS011;10350;51.280;12.400;2022-11-09T12:13:53;1.38;;;1.10;;
20381;SDS011;10350;51.280;12.400;2022-11-09T12:21:42;1.50;;;1.08;;
20381;SDS011;10350;51.280;12.400;2022-11-09T12:24:14;3.47;;;1.05;;
20381;SDS011;10350;51.280;12.400;2022-11-09T12:34:35;1.42;;;0.80;;
20381;SDS011;10350;51.280;12.400;2022-11-09T12:37:03;1.67;;;1.17;;
20381;SDS011;10350;51.280;12.400;2022-11-09T12:39:45;1.98;;;0.80;;
20381;SDS011;10350;51.280;12.400;2022-11-09T12:42:19;1.13;;;0.85;;
20381;SDS011;10350;51.280;12.400;2022-11-09T12:47:20;3.28;;;1.33;;
20381;SDS011;10350;51.280;12.400;2022-11-09T12:49:47;1.98;;;1.00;;
20381;SDS011;10350;51.280;12.400;2022-11-09T12:52:14;2.53;;;1.00;;
20381;SDS011;10350;51.280;12.400;2022-11-09T12:54:47;1.50;;;0.95;;
20381;SDS011;10350;51.280;12.400;2022-11-09T12:57:20;1.95;;;1.23;;
20381;SDS011;10350;51.280;12.400;2022-11-09T12:59:48;1.83;;;1.30;;
20381;SDS011;10350;51.280;12.400;2022-11-09T13:02:31;1.42;;;0.85;;
20381;SDS011;10350;51.280;12.400;2022-11-09T13:05:25;1.02;;;0.93;;
20381;SDS011;10350;51.280;12.400;2022-11-09T13:07:48;1.70;;;0.93;;
20381;SDS011;10350;51.280;12.400;2022-11-09T13:10:28;1.00;;;0.90;;
20381;SDS011;10350;51.280;12.400;2022-11-09T13:13:02;2.30;;;1.05;;
20381;SDS011;10350;51.280;12.400;2022-11-09T13:15:29;1.17;;;0.88;;
20381;SDS011;10350;51.280;12.400;2022-11-09T13:18:00;1.98;;;0.95;;
20381;SDS011;10350;51.280;12.400;2022-11-09T13:30:53;1.58;;;0.60;;
20381;SDS011;10350;51.280;12.400;2022-11-09T13:40:46;0.60;;;0.40;;
20381;SDS011;10350;51.280;12.400;2022-11-09T13:48:32;1.13;;;0.70;;
20381;SDS011;10350;51.280;12.400;2022-11-09T13:50:57;2.25;;;0.63;;
20381;SDS011;10350;51.280;12.400;2022-11-09T13:53:46;0.50;;;0.40;;
20381;SDS011;10350;51.280;12.400;2022-11-09T13:58:45;0.50;;;0.50;;
20381;SDS011;10350;51.280;12.400;2022-11-09T14:01:25;1.85;;;0.60;;
20381;SDS011;10350;51.280;12.400;2022-11-09T14:03:51;0.60;;;0.60;;
20381;SDS011;10350;51.280;12.400;2022-11-09T14:06:17;1.80;;;0.80;;
20381;SDS011;10350;51.280;12.400;2022-11-09T14:08:43;0.90;;;0.65;;
20381;SDS011;10350;51.280;12.400;2022-11-09T14:13:59;0.63;;;0.63;;
20381;SDS011;10350;51.280;12.400;2022-11-09T14:21:45;3.35;;;0.52;;
20381;SDS011;10350;51.280;12.400;2022-11-09T14:29:33;0.70;;;0.55;;
20381;SDS011;10350;51.280;12.400;2022-11-09T14:32:00;0.88;;;0.60;;
20381;SDS011;10350;51.280;12.400;2022-11-09T14:34:27;0.82;;;0.73;;
20381;SDS011;10350;51.280;12.400;2022-11-09T14:36:54;1.33;;;0.80;;
20381;SDS011;10350;51.280;12.400;2022-11-09T14:41:52;0.95;;;0.52;;
20381;SDS011;10350;51.280;12.400;2022-11-09T14:44:28;0.65;;;0.50;;
20381;SDS011;10350;51.280;12.400;2022-11-09T14:46:59;1.90;;;0.75;;
20381;SDS011;10350;51.280;12.400;2022-11-09T14:49:26;0.73;;;0.52;;
20381;SDS011;10350;51.280;12.400;2022-11-09T14:51:52;1.45;;;0.80;;
20381;SDS011;10350;51.280;12.400;2022-11-09T14:54:24;0.52;;;0.50;;
20381;SDS011;10350;51.280;12.400;2022-11-09T14:56:52;1.05;;;0.60;;
20381;SDS011;10350;51.280;12.400;2022-11-09T14:59:30;0.63;;;0.60;;
20381;SDS011;10350;51.280;12.400;2022-11-09T15:01:57;2.05;;;0.73;;
20381;SDS011;10350;51.280;12.400;2022-11-09T15:04:24;2.28;;;0.63;;
20381;SDS011;10350;51.280;12.400;2022-11-09T15:06:55;0.90;;;0.63;;
20381;SDS011;10350;51.280;12.400;2022-11-09T15:09:32;0.73;;;0.50;;
20381;SDS011;10350;51.280;12.400;2022-11-09T15:11:58;0.53;;;0.50;;
20381;SDS011;10350;51.280;12.400;2022-11-09T15:16:56;1.27;;;0.75;;
20381;SDS011;10350;51.280;12.400;2022-11-09T15:19:33;1.42;;;0.65;;
20381;SDS011;10350;51.280;12.400;2022-11-09T15:21:59;1.60;;;0.80;;
20381;SDS011;10350;51.280;12.400;2022-11-09T15:24:26;12.60;;;1.52;;
20381;SDS011;10350;51.280;12.400;2022-11-09T15:26:52;1.13;;;0.60;;
20381;SDS011;10350;51.280;12.400;2022-11-09T15:29:31;1.00;;;0.80;;
20381;SDS011;10350;51.280;12.400;2022-11-09T15:32:01;0.80;;;0.80;;
20381;SDS011;10350;51.280;12.400;2022-11-09T15:34:35;6.45;;;0.90;;
20381;SDS011;10350;51.280;12.400;2022-11-09T15:37:23;0.60;;;0.60;;
20381;SDS011;10350;51.280;12.400;2022-11-09T15:39:50;2.35;;;1.15;;
20381;SDS011;10350;51.280;12.400;2022-11-09T15:42:19;1.00;;;0.80;;
20381;SDS011;10350;51.280;12.400;2022-11-09T15:44:49;1.67;;;0.80;;
20381;SDS011;10350;51.280;12.400;2022-11-09T15:47:20;1.20;;;0.90;;
20381;SDS011;10350;51.280;12.400;2022-11-09T15:49:46;1.42;;;0.98;;
20381;SDS011;10350;51.280;12.400;2022-11-09T15:52:12;0.77;;;0.77;;
20381;SDS011;10350;51.280;12.400;2022-11-09T15:54:42;0.98;;;0.88;;
20381;SDS011;10350;51.280;12.400;2022-11-09T15:57:10;2.15;;;0.82;;
20381;SDS011;10350;51.280;12.400;2022-11-09T15:59:39;0.82;;;0.80;;
20381;SDS011;10350;51.280;12.400;2022-11-09T16:02:05;1.33;;;0.88;;
20381;SDS011;10350;51.280;12.400;2022-11-09T16:04:31;3.13;;;0.85;;
20381;SDS011;10350;51.280;12.400;2022-11-09T16:06:57;0.98;;;0.88;;
20381;SDS011;10350;51.280;12.400;2022-11-09T16:09:23;1.92;;;1.20;;
20381;SDS011;10350;51.280;12.400;2022-11-09T16:11:49;2.40;;;0.80;;
20381;SDS011;10350;51.280;12.400;2022-11-09T16:14:15;1.13;;;0.80;;
20381;SDS011;10350;51.280;12.400;2022-11-09T16:16:42;1.02;;;0.93;;
20381;SDS011;10350;51.280;12.400;2022-11-09T16:19:12;1.13;;;0.82;;
20381;SDS011;10350;51.280;12.400;2022-11-09T16:21:38;2.07;;;0.97;;
20381;SDS011;10350;51.280;12.400;2022-11-09T16:24:04;1.90;;;1.10;;
20381;SDS011;10350;51.280;12.400;2022-11-09T16:26:30;2.35;;;1.00;;
20381;SDS011;10350;51.280;12.400;2022-11-09T16:28:56;2.45;;;1.15;;
20381;SDS011;10350;51.280;12.400;2022-11-09T16:31:23;1.77;;;0.93;;
20381;SDS011;10350;51.280;12.400;2022-11-09T16:33:49;1.52;;;0.90;;